Time;durP1;ratioP1;P1;durP2;ratioP2;P2;SDS_P1;SDS_P2;PMS_P1;PMS_P2;Temp;Humidity;BMP_temperature;BMP_pressure;BME280_temperature;BME280_humidity;BME280_pressure;Samples;Min_cycle;Max_cycle;Signal;HPM_P1;HPM_P2
2023/07/14 00:00:23;;;;;;;;;;;16.00;99.90;;;;;;4864255;29;19927;-90
2023/07/14 00:02:50;;;;;;;;;;;16.00;99.90;;;;;;4879579;29;19940;-90
2023/07/14 00:05:36;;;;;;;;;;;15.90;99.90;;;;;;4863748;29;19923;-89
2023/07/14 00:08:03;;;;;;;;;;;15.80;99.90;;;;;;4863537;29;19932;-89
2023/07/14 00:10:34;;;;;;;;;;;15.70;99.90;;;;;;4863131;29;19935;-89
2023/07/14 00:13:00;;;;;;;;;;;15.70;99.90;;;;;;4879614;29;19945;-89
2023/07/14 00:15:26;;;;;;;;;;;15.60;99.90;;;;;;4862961;29;19939;-89
2023/07/14 00:17:57;;;;;;;;;;;15.60;99.90;;;;;;4863601;29;19928;-89
2023/07/14 00:20:24;;;;;;;;;;;15.50;99.90;;;;;;4863355;29;19938;-89
2023/07/14 00:22:50;;;;;;;;;;;15.50;99.90;;;;;;4864055;29;19927;-89
2023/07/14 00:25:16;;;;;;;;;;;15.50;99.90;;;;;;4863085;29;19947;-89
2023/07/14 00:27:42;;;;;;;;;;;15.40;99.90;;;;;;4863285;29;19927;-89
2023/07/14 00:30:16;;;;;;;;;;;15.40;99.90;;;;;;4879553;29;20463;-89
2023/07/14 00:32:42;;;;;;;;;;;15.40;99.90;;;;;;4878523;29;19979;-90
2023/07/14 00:35:16;;;;;;;;;;;15.40;99.90;;;;;;4880251;29;19931;-88
2023/07/14 00:37:42;;;;;;;;;;;15.30;99.90;;;;;;4863779;29;19932;-88
2023/07/14 00:40:11;;;;;;;;;;;15.30;99.90;;;;;;4890281;29;19951;-89
2023/07/14 00:42:39;;;;;;;;;;;15.30;99.90;;;;;;4893541;29;20030;-88
2023/07/14 00:45:09;;;;;;;;;;;15.30;99.90;;;;;;4878254;29;19974;-88
2023/07/14 00:47:34;;;;;;;;;;;15.30;99.90;;;;;;4862547;29;19932;-89
2023/07/14 00:50:01;;;;;;;;;;;15.30;99.90;;;;;;4878965;29;19934;-89
2023/07/14 00:52:48;;;;;;;;;;;15.30;99.90;;;;;;4878648;29;19934;-88
2023/07/14 00:55:33;;;;;;;;;;;15.20;99.90;;;;;;4870257;29;20336;-88
2023/07/14 00:57:59;;;;;;;;;;;15.20;99.90;;;;;;4857525;29;19938;-88
2023/07/14 01:00:27;;;;;;;;;;;15.20;99.90;;;;;;4892270;29;19927;-89
2023/07/14 01:02:59;;;;;;;;;;;15.20;99.90;;;;;;4853177;29;19931;-88
2023/07/14 01:05:28;;;;;;;;;;;15.20;99.90;;;;;;4893161;29;19927;-88
2023/07/14 01:07:55;;;;;;;;;;;15.20;99.90;;;;;;4862495;29;20411;-88
2023/07/14 01:10:23;;;;;;;;;;;15.10;99.90;;;;;;4861958;29;19941;-88
2023/07/14 01:12:51;;;;;;;;;;;15.10;99.90;;;;;;4878117;29;19938;-89
2023/07/14 01:15:17;;;;;;;;;;;15.10;99.90;;;;;;4892212;29;19951;-88
2023/07/14 01:17:43;;;;;;;;;;;15.00;99.90;;;;;;4877605;29;19928;-88
2023/07/14 01:20:12;;;;;;;;;;;15.00;99.90;;;;;;4862995;29;19959;-88
2023/07/14 01:22:48;;;;;;;;;;;15.00;99.90;;;;;;4861558;29;19928;-89
2023/07/14 01:25:14;;;;;;;;;;;15.00;99.90;;;;;;4862190;29;19932;-88
2023/07/14 01:27:39;;;;;;;;;;;14.90;99.90;;;;;;4877495;29;19935;-88
2023/07/14 01:30:06;;;;;;;;;;;14.90;99.90;;;;;;4873239;29;19966;-88
2023/07/14 01:32:36;;;;;;;;;;;14.90;99.90;;;;;;4854468;29;20562;-88
2023/07/14 01:35:05;;;;;;;;;;;14.80;99.90;;;;;;4861779;29;19975;-88
2023/07/14 01:37:31;;;;;;;;;;;14.80;99.90;;;;;;4862703;29;19979;-88
2023/07/14 01:39:58;;;;;;;;;;;14.80;99.90;;;;;;4876157;29;20168;-88
2023/07/14 01:42:24;;;;;;;;;;;14.80;99.90;;;;;;4860863;29;19942;-89
2023/07/14 01:44:49;;;;;;;;;;;14.70;99.90;;;;;;4862144;29;19935;-88
2023/07/14 01:47:15;;;;;;;;;;;14.70;99.90;;;;;;4862188;29;19927;-89
2023/07/14 01:49:49;;;;;;;;;;;14.60;99.90;;;;;;4892537;29;19932;-88
2023/07/14 01:52:18;;;;;;;;;;;14.60;99.90;;;;;;4892693;29;19938;-88
2023/07/14 01:54:48;;;;;;;;;;;14.60;99.90;;;;;;4865549;29;20300;-88
2023/07/14 01:57:16;;;;;;;;;;;14.60;99.90;;;;;;4860698;29;19931;-88
2023/07/14 01:59:44;;;;;;;;;;;14.50;99.90;;;;;;4866315;29;19954;-89
2023/07/14 02:02:16;;;;;;;;;;;14.50;99.90;;;;;;4877112;29;19939;-89
2023/07/14 02:04:42;;;;;;;;;;;14.50;99.90;;;;;;4861714;29;19935;-88
2023/07/14 02:07:14;;;;;;;;;;;14.50;99.90;;;;;;4862405;29;20423;-88
2023/07/14 02:09:40;;;;;;;;;;;14.50;99.90;;;;;;4862329;29;19935;-88
2023/07/14 02:12:06;;;;;;;;;;;14.50;99.90;;;;;;4861354;29;20030;-89
2023/07/14 02:14:41;;;;;;;;;;;14.50;99.90;;;;;;4877822;29;20030;-89
2023/07/14 02:17:18;;;;;;;;;;;14.50;99.90;;;;;;4861196;29;19935;-89
2023/07/14 02:19:44;;;;;;;;;;;14.40;99.90;;;;;;4877360;29;19962;-90
2023/07/14 02:22:09;;;;;;;;;;;14.40;99.90;;;;;;4862277;29;20399;-89
2023/07/14 02:24:35;;;;;;;;;;;14.40;99.90;;;;;;4861683;29;19938;-89
2023/07/14 02:27:02;;;;;;;;;;;14.40;99.90;;;;;;4877149;29;19927;-89
2023/07/14 02:29:29;;;;;;;;;;;14.40;99.90;;;;;;4862523;29;19983;-89
2023/07/14 02:32:04;;;;;;;;;;;14.30;99.90;;;;;;4876260;29;19931;-88
2023/07/14 02:34:34;;;;;;;;;;;14.40;99.90;;;;;;4876928;29;19931;-89
2023/07/14 02:37:01;;;;;;;;;;;14.30;99.90;;;;;;4877295;29;19931;-89
2023/07/14 02:39:33;;;;;;;;;;;14.30;99.90;;;;;;4860376;29;20428;-88
2023/07/14 02:42:00;;;;;;;;;;;14.30;99.90;;;;;;4861433;29;19935;-89
2023/07/14 02:44:30;;;;;;;;;;;14.30;99.90;;;;;;4877034;29;19979;-89
2023/07/14 02:47:00;;;;;;;;;;;14.30;99.90;;;;;;4861981;29;19931;-89
2023/07/14 02:49:26;;;;;;;;;;;14.30;99.90;;;;;;4877244;29;19932;-89
2023/07/14 02:51:51;;;;;;;;;;;14.30;99.90;;;;;;4892561;29;19928;-89
2023/07/14 02:54:17;;;;;;;;;;;14.30;99.90;;;;;;4876558;29;19927;-89
2023/07/14 02:56:43;;;;;;;;;;;14.30;99.90;;;;;;4876885;29;19935;-89
2023/07/14 02:59:10;;;;;;;;;;;14.30;99.90;;;;;;4889643;29;19928;-88
2023/07/14 03:01:36;;;;;;;;;;;14.30;99.90;;;;;;4858464;29;19928;-89
2023/07/14 03:04:01;;;;;;;;;;;14.30;99.90;;;;;;4864845;29;20022;-89
2023/07/14 03:06:27;;;;;;;;;;;14.20;99.90;;;;;;4876826;29;19928;-88
2023/07/14 03:08:53;;;;;;;;;;;14.20;99.90;;;;;;4880662;29;19931;-89
2023/07/14 03:11:18;;;;;;;;;;;14.20;99.90;;;;;;4880791;29;19982;-89
2023/07/14 03:13:46;;;;;;;;;;;14.20;99.90;;;;;;4864657;29;19927;-89
2023/07/14 03:16:12;;;;;;;;;;;14.20;99.90;;;;;;4865391;29;20310;-89
2023/07/14 03:18:37;;;;;;;;;;;14.20;99.90;;;;;;4863693;29;19928;-89
2023/07/14 03:21:03;;;;;;;;;;;14.20;99.90;;;;;;4895406;29;19950;-89
2023/07/14 03:23:32;;;;;;;;;;;14.10;99.90;;;;;;4879864;29;19982;-89
2023/07/14 03:26:03;;;;;;;;;;;14.20;99.90;;;;;;4872784;29;19932;-89
2023/07/14 03:28:29;;;;;;;;;;;14.20;99.90;;;;;;4880080;29;19927;-89
2023/07/14 03:30:55;;;;;;;;;;;14.20;99.90;;;;;;4864222;29;19974;-89
2023/07/14 03:33:21;;;;;;;;;;;14.20;99.90;;;;;;4882700;29;19935;-88
2023/07/14 03:35:47;;;;;;;;;;;14.20;99.90;;;;;;4878918;29;19928;-89
2023/07/14 03:38:12;;;;;;;;;;;14.20;99.90;;;;;;4880139;29;19928;-89
2023/07/14 03:40:41;;;;;;;;;;;14.20;99.90;;;;;;4864280;29;20046;-90
2023/07/14 03:43:07;;;;;;;;;;;14.20;99.90;;;;;;4864188;29;19934;-89
2023/07/14 03:45:33;;;;;;;;;;;14.20;99.90;;;;;;4894747;29;19927;-88
2023/07/14 03:47:59;;;;;;;;;;;14.20;99.90;;;;;;4893799;29;19928;-89
2023/07/14 03:50:25;;;;;;;;;;;14.20;99.90;;;;;;4863550;29;20305;-89
2023/07/14 03:52:52;;;;;;;;;;;14.10;99.90;;;;;;4863998;29;20296;-89
2023/07/14 03:55:18;;;;;;;;;;;14.20;99.90;;;;;;4869751;29;20401;-88
2023/07/14 03:57:44;;;;;;;;;;;14.20;99.90;;;;;;4893601;29;19928;-88
2023/07/14 04:00:14;;;;;;;;;;;14.20;99.90;;;;;;4864141;29;19930;-89
2023/07/14 04:02:40;;;;;;;;;;;14.20;99.90;;;;;;4878712;29;20014;-88
2023/07/14 04:05:07;;;;;;;;;;;14.20;99.90;;;;;;4863893;29;19924;-89
2023/07/14 04:07:33;;;;;;;;;;;14.20;99.90;;;;;;4863979;29;19931;-88
2023/07/14 04:09:58;;;;;;;;;;;14.20;99.90;;;;;;4862631;29;19938;-88
2023/07/14 04:12:24;;;;;;;;;;;14.20;99.90;;;;;;4863342;29;19923;-88
2023/07/14 04:14:50;;;;;;;;;;;14.20;99.90;;;;;;4879417;29;20284;-87
2023/07/14 04:17:15;;;;;;;;;;;14.30;99.90;;;;;;4862647;29;19928;-89
2023/07/14 04:19:41;;;;;;;;;;;14.30;99.90;;;;;;4878341;29;19942;-88
2023/07/14 04:22:06;;;;;;;;;;;14.30;99.90;;;;;;4863190;29;19962;-88
2023/07/14 04:24:32;;;;;;;;;;;14.30;99.90;;;;;;4863230;29;19928;-86
2023/07/14 04:27:01;;;;;;;;;;;14.70;99.90;;;;;;4878910;29;20014;-88
2023/07/14 04:29:26;;;;;;;;;;;14.30;99.90;;;;;;4879157;29;20384;-88
2023/07/14 04:31:52;;;;;;;;;;;14.40;99.90;;;;;;4862428;29;19935;-88
2023/07/14 04:34:18;;;;;;;;;;;14.40;99.90;;;;;;4863461;29;19932;-88
2023/07/14 04:36:46;;;;;;;;;;;14.50;99.90;;;;;;4862431;29;20011;-88
2023/07/14 04:39:11;;;;;;;;;;;14.50;99.90;;;;;;4862626;29;20334;-88
2023/07/14 04:41:37;;;;;;;;;;;14.60;99.90;;;;;;4874528;29;19927;-88
2023/07/14 04:44:08;;;;;;;;;;;14.60;99.90;;;;;;4879020;29;20435;-89
2023/07/14 04:46:37;;;;;;;;;;;14.70;99.90;;;;;;4877759;29;19927;-88
2023/07/14 04:49:03;;;;;;;;;;;14.70;99.90;;;;;;4863977;29;19935;-88
2023/07/14 04:51:31;;;;;;;;;;;14.70;99.90;;;;;;4862988;29;19927;-88
2023/07/14 04:53:57;;;;;;;;;;;14.80;99.90;;;;;;4862099;29;19927;-88
2023/07/14 04:56:23;;;;;;;;;;;14.80;99.90;;;;;;4862021;29;19927;-88
2023/07/14 04:58:49;;;;;;;;;;;14.90;99.90;;;;;;4862303;29;19931;-89
2023/07/14 05:01:14;;;;;;;;;;;14.90;99.90;;;;;;4862552;29;19923;-88
2023/07/14 05:03:44;;;;;;;;;;;15.00;99.90;;;;;;4877422;29;19942;-87
2023/07/14 05:06:10;;;;;;;;;;;15.10;99.90;;;;;;4862580;29;19971;-87
2023/07/14 05:08:36;;;;;;;;;;;15.10;99.90;;;;;;4862573;29;19927;-88
2023/07/14 05:11:02;;;;;;;;;;;15.20;99.90;;;;;;4877759;29;19937;-88
2023/07/14 05:13:27;;;;;;;;;;;15.30;99.90;;;;;;4861541;29;19923;-88
2023/07/14 05:15:55;;;;;;;;;;;15.30;99.90;;;;;;4877742;29;19991;-88
2023/07/14 05:18:21;;;;;;;;;;;15.40;99.90;;;;;;4877848;29;20022;-88
2023/07/14 05:20:46;;;;;;;;;;;15.50;99.90;;;;;;4861307;29;20015;-88
2023/07/14 05:23:12;;;;;;;;;;;15.60;99.90;;;;;;4862751;29;19934;-88
2023/07/14 05:25:38;;;;;;;;;;;15.60;99.90;;;;;;4861729;29;19964;-88
2023/07/14 05:28:04;;;;;;;;;;;15.80;99.90;;;;;;4861845;29;19929;-88
2023/07/14 05:30:30;;;;;;;;;;;15.80;99.90;;;;;;4861594;29;20423;-88
2023/07/14 05:32:55;;;;;;;;;;;15.90;99.90;;;;;;4862912;29;19970;-88
2023/07/14 05:35:21;;;;;;;;;;;16.00;99.90;;;;;;4861437;29;19931;-87
2023/07/14 05:37:47;;;;;;;;;;;16.10;99.90;;;;;;4861547;29;19932;-87
2023/07/14 05:40:16;;;;;;;;;;;16.10;99.90;;;;;;4860758;29;20295;-88
2023/07/14 05:42:42;;;;;;;;;;;16.20;99.90;;;;;;4874917;29;19931;-87
2023/07/14 05:45:14;;;;;;;;;;;16.30;99.90;;;;;;4877249;29;19939;-87
2023/07/14 05:47:51;;;;;;;;;;;16.40;99.90;;;;;;4876728;29;19982;-87
2023/07/14 05:50:19;;;;;;;;;;;16.40;99.90;;;;;;4862147;29;19938;-87
2023/07/14 05:52:46;;;;;;;;;;;16.50;99.90;;;;;;4876805;29;19935;-87
2023/07/14 05:55:11;;;;;;;;;;;16.60;99.90;;;;;;4862624;29;19947;-89
2023/07/14 05:57:46;;;;;;;;;;;16.70;99.90;;;;;;4862213;29;20432;-89
2023/07/14 06:00:16;;;;;;;;;;;16.80;99.90;;;;;;4862318;29;19934;-89
2023/07/14 06:02:50;;;;;;;;;;;16.90;99.90;;;;;;4861628;29;19983;-88
2023/07/14 06:05:17;;;;;;;;;;;17.00;99.90;;;;;;4861884;29;19927;-88
2023/07/14 06:07:48;;;;;;;;;;;17.20;99.90;;;;;;4862939;29;20431;-92
2023/07/14 06:10:27;;;;;;;;;;;17.20;99.90;;;;;;4877463;29;19932;-89
2023/07/14 06:12:52;;;;;;;;;;;17.30;99.90;;;;;;4877859;29;19932;-88
2023/07/14 06:15:18;;;;;;;;;;;17.40;99.90;;;;;;4877800;29;19939;-88
2023/07/14 06:17:46;;;;;;;;;;;17.60;99.90;;;;;;4861167;29;19935;-88
2023/07/14 06:20:13;;;;;;;;;;;17.70;99.90;;;;;;4878309;29;19970;-89
2023/07/14 06:22:39;;;;;;;;;;;17.80;99.90;;;;;;4862363;29;19981;-88
2023/07/14 06:25:04;;;;;;;;;;;17.90;99.90;;;;;;4867791;29;19927;-89
2023/07/14 06:27:35;;;;;;;;;;;17.90;99.90;;;;;;4873956;29;19956;-86
2023/07/14 06:30:04;;;;;;;;;;;18.00;99.90;;;;;;4862788;29;19955;-88
2023/07/14 06:32:35;;;;;;;;;;;18.20;99.90;;;;;;4884706;29;20344;-89
2023/07/14 06:35:01;;;;;;;;;;;18.30;99.90;;;;;;4862029;29;19931;-89
2023/07/14 06:37:33;;;;;;;;;;;18.40;99.90;;;;;;4877634;29;20782;-89
2023/07/14 06:40:06;;;;;;;;;;;18.50;99.90;;;;;;4885691;29;19928;-89
2023/07/14 06:42:35;;;;;;;;;;;18.60;99.90;;;;;;4864683;29;19951;-90
2023/07/14 06:45:04;;;;;;;;;;;18.70;99.90;;;;;;4872691;29;19932;-90
2023/07/14 06:47:41;;;;;;;;;;;18.70;99.90;;;;;;4883962;29;19937;-89
2023/07/14 06:50:07;;;;;;;;;;;18.80;99.90;;;;;;4865553;29;19979;-89
2023/07/14 06:52:35;;;;;;;;;;;18.80;99.90;;;;;;4863863;29;19943;-89
2023/07/14 06:55:01;;;;;;;;;;;18.90;99.90;;;;;;4881364;29;19939;-88
2023/07/14 06:57:27;;;;;;;;;;;19.00;99.90;;;;;;4864955;29;19979;-89
2023/07/14 06:59:58;;;;;;;;;;;19.10;99.90;;;;;;4879588;29;19932;-89
2023/07/14 07:02:30;;;;;;;;;;;19.20;99.90;;;;;;4862020;29;20040;-89
2023/07/14 07:04:59;;;;;;;;;;;18.60;99.90;;;;;;4865180;29;20030;-89
2023/07/14 07:07:34;;;;;;;;;;;19.30;99.90;;;;;;4878139;29;19937;-89
2023/07/14 07:10:02;;;;;;;;;;;19.30;99.90;;;;;;4869894;29;20198;-89
2023/07/14 07:12:29;;;;;;;;;;;19.40;99.90;;;;;;4878227;29;19928;-90
2023/07/14 07:14:55;;;;;;;;;;;19.50;99.90;;;;;;4875044;29;19935;-90
2023/07/14 07:17:20;;;;;;;;;;;19.60;99.90;;;;;;4862352;29;19935;-89
2023/07/14 07:19:46;;;;;;;;;;;19.60;99.90;;;;;;4863331;29;19932;-89
2023/07/14 07:22:14;;;;;;;;;;;19.70;99.90;;;;;;4863052;29;19951;-90
2023/07/14 07:24:40;;;;;;;;;;;19.80;99.90;;;;;;4863428;29;19936;-90
2023/07/14 07:27:06;;;;;;;;;;;19.80;99.90;;;;;;4863025;29;20384;-88
2023/07/14 07:29:32;;;;;;;;;;;19.90;99.90;;;;;;4879246;29;19928;-88
2023/07/14 07:31:57;;;;;;;;;;;19.90;99.90;;;;;;4863309;29;19932;-88
2023/07/14 07:34:23;;;;;;;;;;;20.10;99.90;;;;;;4879129;29;19971;-89
2023/07/14 07:36:49;;;;;;;;;;;20.10;99.90;;;;;;4863379;29;19931;-88
2023/07/14 07:39:14;;;;;;;;;;;20.20;99.90;;;;;;4863686;29;19935;-88
2023/07/14 07:41:40;;;;;;;;;;;20.20;99.90;;;;;;4878226;29;19966;-88
2023/07/14 07:44:09;;;;;;;;;;;20.20;99.90;;;;;;4864653;29;19931;-88
2023/07/14 07:46:35;;;;;;;;;;;20.20;99.90;;;;;;4863411;29;19959;-89
2023/07/14 07:49:02;;;;;;;;;;;20.30;99.90;;;;;;4862257;29;20053;-87
2023/07/14 07:51:28;;;;;;;;;;;20.20;99.90;;;;;;4863326;29;19935;-88
2023/07/14 07:53:54;;;;;;;;;;;20.30;99.90;;;;;;4888830;29;19927;-88
2023/07/14 07:56:20;;;;;;;;;;;20.30;99.90;;;;;;4888274;29;19927;-87
2023/07/14 07:58:46;;;;;;;;;;;20.30;99.90;;;;;;4863301;29;19938;-88
2023/07/14 08:01:19;;;;;;;;;;;20.30;99.90;;;;;;4888473;29;19931;-89
2023/07/14 08:03:45;;;;;;;;;;;20.40;99.90;;;;;;4895190;29;19927;-87
2023/07/14 08:06:10;;;;;;;;;;;20.60;99.90;;;;;;4879567;29;19996;-88
2023/07/14 08:08:36;;;;;;;;;;;20.80;99.90;;;;;;4863552;29;19934;-86
2023/07/14 08:11:02;;;;;;;;;;;20.90;99.90;;;;;;4864000;29;19927;-87
2023/07/14 08:13:28;;;;;;;;;;;20.80;99.90;;;;;;4884202;29;20406;-87
2023/07/14 08:15:55;;;;;;;;;;;20.60;99.90;;;;;;4878353;29;19935;-88
2023/07/14 08:18:21;;;;;;;;;;;20.50;99.90;;;;;;4864268;29;19993;-87
2023/07/14 08:20:47;;;;;;;;;;;20.60;99.90;;;;;;4863775;29;19928;-88
2023/07/14 08:23:15;;;;;;;;;;;20.70;99.90;;;;;;4879495;29;19939;-87
2023/07/14 08:25:41;;;;;;;;;;;21.00;99.90;;;;;;4879179;29;19994;-89
2023/07/14 08:28:06;;;;;;;;;;;21.30;99.90;;;;;;4864664;29;20093;-88
2023/07/14 08:30:32;;;;;;;;;;;21.40;99.90;;;;;;4897892;29;20384;-88
2023/07/14 08:32:58;;;;;;;;;;;21.50;99.90;;;;;;4876978;29;20322;-87
2023/07/14 08:35:24;;;;;;;;;;;21.70;99.90;;;;;;4877124;29;19990;-91
2023/07/14 08:37:50;;;;;;;;;;;21.70;99.90;;;;;;4875792;29;20300;-88
2023/07/14 08:40:21;;;;;;;;;;;21.70;99.90;;;;;;4858349;29;20287;-87
2023/07/14 08:43:01;;;;;;;;;;;21.40;99.90;;;;;;4861749;29;19927;-87
2023/07/14 08:45:37;;;;;;;;;;;21.20;99.90;;;;;;4860929;29;19995;-87
2023/07/14 08:48:04;;;;;;;;;;;20.90;99.90;;;;;;4879313;29;19983;-89
2023/07/14 08:50:30;;;;;;;;;;;20.90;99.90;;;;;;4887002;29;19939;-86
2023/07/14 08:53:03;;;;;;;;;;;20.90;99.90;;;;;;4851569;29;19931;-89
2023/07/14 08:55:30;;;;;;;;;;;21.20;99.90;;;;;;4866269;29;19935;-90
2023/07/14 08:58:04;;;;;;;;;;;21.40;99.90;;;;;;4862326;29;19982;-90
2023/07/14 09:00:33;;;;;;;;;;;21.70;99.90;;;;;;4855788;29;19934;-90
2023/07/14 09:03:18;;;;;;;;;;;21.90;99.90;;;;;;4893658;29;20309;-90
2023/07/14 09:05:53;;;;;;;;;;;22.00;99.90;;;;;;4848490;29;20038;-90
2023/07/14 09:08:21;;;;;;;;;;;21.80;99.90;;;;;;4866631;29;19971;-88
2023/07/14 09:10:53;;;;;;;;;;;21.50;99.90;;;;;;4871356;29;20208;-88
2023/07/14 09:13:37;;;;;;;;;;;21.20;99.90;;;;;;4871947;29;20064;-88
2023/07/14 09:16:03;;;;;;;;;;;20.90;99.90;;;;;;4852852;29;19932;-87
2023/07/14 09:18:41;;;;;;;;;;;21.10;99.90;;;;;;4856303;29;19928;-87
2023/07/14 09:21:21;;;;;;;;;;;21.30;99.90;;;;;;4886560;29;20006;-88
2023/07/14 09:23:53;;;;;;;;;;;21.60;99.90;;;;;;4874224;29;19924;-88
2023/07/14 09:26:23;;;;;;;;;;;21.80;99.90;;;;;;4875037;29;19954;-88
2023/07/14 09:28:50;;;;;;;;;;;22.00;99.90;;;;;;4860158;29;19924;-88
2023/07/14 09:31:24;;;;;;;;;;;22.20;99.90;;;;;;4891437;29;19931;-87
2023/07/14 09:33:54;;;;;;;;;;;22.40;99.90;;;;;;4856026;29;19931;-88
2023/07/14 09:36:21;;;;;;;;;;;22.60;99.90;;;;;;4884617;29;19976;-88
2023/07/14 09:38:49;;;;;;;;;;;22.70;99.90;;;;;;4879170;29;20418;-90
2023/07/14 09:41:16;;;;;;;;;;;22.90;99.90;;;;;;4874564;29;19924;-88
2023/07/14 09:43:45;;;;;;;;;;;23.10;99.90;;;;;;4876455;29;20022;-88
2023/07/14 09:46:17;;;;;;;;;;;23.30;99.90;;;;;;4860379;29;19966;-89
2023/07/14 09:48:47;;;;;;;;;;;23.40;99.90;;;;;;4875404;29;19931;-88
2023/07/14 09:51:14;;;;;;;;;;;23.50;99.90;;;;;;4875513;29;19937;-88
2023/07/14 09:53:55;;;;;;;;;;;23.60;99.90;;;;;;4865876;29;19938;-87
2023/07/14 09:56:23;;;;;;;;;;;23.60;99.90;;;;;;4879348;29;19985;-87
2023/07/14 09:58:53;;;;;;;;;;;23.80;99.90;;;;;;4861201;29;19936;-89
2023/07/14 10:01:18;;;;;;;;;;;23.80;99.90;;;;;;4891457;29;19939;-89
2023/07/14 10:03:49;;;;;;;;;;;23.90;99.90;;;;;;4876821;29;19928;-87
2023/07/14 10:06:20;;;;;;;;;;;23.90;99.90;;;;;;4856989;29;20392;-87
2023/07/14 10:08:49;;;;;;;;;;;23.90;99.90;;;;;;4861035;29;19935;-88
2023/07/14 10:11:17;;;;;;;;;;;23.80;99.90;;;;;;4884245;29;20003;-87
2023/07/14 10:13:57;;;;;;;;;;;23.90;99.90;;;;;;4873114;29;19936;-88
2023/07/14 10:16:24;;;;;;;;;;;24.00;99.90;;;;;;4875091;29;19978;-88
2023/07/14 10:18:51;;;;;;;;;;;24.10;99.90;;;;;;4864247;29;19927;-88
2023/07/14 10:21:22;;;;;;;;;;;24.20;99.90;;;;;;4857468;29;19950;-87
2023/07/14 10:23:57;;;;;;;;;;;24.20;99.90;;;;;;4864048;29;19975;-87
2023/07/14 10:26:23;;;;;;;;;;;24.20;99.90;;;;;;4864430;29;20703;-86
2023/07/14 10:28:50;;;;;;;;;;;24.30;99.90;;;;;;4880932;29;19978;-87
2023/07/14 10:31:23;;;;;;;;;;;24.40;99.90;;;;;;4865085;29;19974;-86
2023/07/14 10:33:48;;;;;;;;;;;24.40;99.90;;;;;;4889626;29;19955;-86
2023/07/14 10:36:25;;;;;;;;;;;24.40;99.90;;;;;;4864475;29;20352;-87
2023/07/14 10:38:51;;;;;;;;;;;24.40;99.90;;;;;;4884569;29;19947;-87
2023/07/14 10:41:17;;;;;;;;;;;24.60;99.90;;;;;;4864045;29;19927;-88
2023/07/14 10:43:48;;;;;;;;;;;24.60;99.90;;;;;;4865024;29;19990;-88
2023/07/14 10:46:19;;;;;;;;;;;24.30;99.90;;;;;;4878460;29;19928;-94
2023/07/14 10:48:52;;;;;;;;;;;24.00;99.90;;;;;;4866438;29;20010;-87
2023/07/14 10:51:18;;;;;;;;;;;23.70;99.90;;;;;;4881508;29;19932;-88
2023/07/14 10:53:49;;;;;;;;;;;23.40;99.90;;;;;;4898337;29;19932;-88
2023/07/14 10:56:20;;;;;;;;;;;23.20;99.90;;;;;;4866997;29;19931;-89
2023/07/14 10:58:54;;;;;;;;;;;23.10;99.90;;;;;;4883150;29;19938;-90
2023/07/14 11:01:28;;;;;;;;;;;23.00;99.90;;;;;;4877281;29;19928;-90
2023/07/14 11:03:57;;;;;;;;;;;22.90;99.90;;;;;;4882276;29;20307;-90
2023/07/14 11:06:27;;;;;;;;;;;23.00;99.90;;;;;;4866276;29;20052;-89
2023/07/14 11:08:54;;;;;;;;;;;23.10;99.90;;;;;;4862906;29;19935;-91
2023/07/14 11:11:20;;;;;;;;;;;23.10;99.90;;;;;;4857399;29;20342;-91
2023/07/14 11:13:54;;;;;;;;;;;23.00;99.90;;;;;;4865441;29;19939;-91
2023/07/14 11:16:28;;;;;;;;;;;22.90;99.90;;;;;;4857239;29;19938;-91
2023/07/14 11:19:10;;;;;;;;;;;22.80;99.90;;;;;;4864422;29;19939;-92
2023/07/14 11:21:44;;;;;;;;;;;22.70;99.90;;;;;;4881435;29;19935;-91
2023/07/14 11:24:20;;;;;;;;;;;23.00;99.90;;;;;;4867028;29;20395;-92
2023/07/14 11:26:45;;;;;;;;;;;22.80;99.90;;;;;;4860739;29;19932;-91
2023/07/14 11:29:20;;;;;;;;;;;22.80;99.90;;;;;;4879645;29;19939;-90
2023/07/14 11:31:47;;;;;;;;;;;23.00;99.90;;;;;;4878750;29;20451;-89
2023/07/14 11:34:13;;;;;;;;;;;23.20;99.90;;;;;;4866069;29;19928;-90
2023/07/14 11:36:42;;;;;;;;;;;23.40;99.90;;;;;;4865814;29;19932;-88
2023/07/14 11:39:14;;;;;;;;;;;23.60;99.90;;;;;;4874791;29;19931;-88
2023/07/14 11:41:40;;;;;;;;;;;23.90;99.90;;;;;;4865726;29;19933;-88
2023/07/14 11:44:10;;;;;;;;;;;24.10;99.90;;;;;;4865388;29;19927;-90
2023/07/14 11:46:36;;;;;;;;;;;23.90;99.90;;;;;;4878133;29;19924;-90
2023/07/14 11:49:03;;;;;;;;;;;23.90;99.90;;;;;;4876501;29;19939;-90
2023/07/14 11:51:50;;;;;;;;;;;24.00;99.90;;;;;;4869570;29;19928;-90
2023/07/14 11:54:18;;;;;;;;;;;24.00;99.90;;;;;;4881191;29;19967;-91
2023/07/14 11:56:51;;;;;;;;;;;24.00;99.90;;;;;;4876705;29;19935;-90
2023/07/14 11:59:22;;;;;;;;;;;24.00;99.90;;;;;;4891323;29;19943;-91
2023/07/14 12:01:49;;;;;;;;;;;24.00;99.90;;;;;;4880470;29;19927;-90
2023/07/14 12:04:27;;;;;;;;;;;23.90;99.90;;;;;;4866593;29;20006;-90
2023/07/14 12:07:01;;;;;;;;;;;23.80;99.90;;;;;;4871019;29;19927;-90
2023/07/14 12:09:27;;;;;;;;;;;23.60;99.90;;;;;;4897614;29;19928;-91
2023/07/14 12:11:55;;;;;;;;;;;23.70;99.90;;;;;;4891812;29;19927;-90
2023/07/14 12:14:26;;;;;;;;;;;24.00;99.90;;;;;;4857505;29;20002;-91
2023/07/14 12:16:52;;;;;;;;;;;24.20;99.90;;;;;;4865671;29;20043;-88
2023/07/14 12:19:23;;;;;;;;;;;24.50;99.90;;;;;;4856935;29;19928;-90
2023/07/14 12:21:55;;;;;;;;;;;24.60;99.90;;;;;;4878984;29;19934;-89
2023/07/14 12:24:26;;;;;;;;;;;24.60;99.90;;;;;;4880774;29;20014;-91
2023/07/14 12:26:57;;;;;;;;;;;24.80;99.90;;;;;;4865182;29;20268;-90
2023/07/14 12:29:27;;;;;;;;;;;24.80;99.90;;;;;;4868048;29;19931;-96
2023/07/14 12:31:56;;;;;;;;;;;24.90;99.90;;;;;;4880035;29;20030;-92
2023/07/14 12:34:34;;;;;;;;;;;25.00;99.90;;;;;;4865237;29;20090;-90
2023/07/14 12:37:13;;;;;;;;;;;24.80;99.90;;;;;;4880177;29;19934;-90
2023/07/14 12:39:53;;;;;;;;;;;24.70;99.90;;;;;;4868199;29;19932;-90
2023/07/14 12:42:29;;;;;;;;;;;24.50;99.90;;;;;;4872905;29;19927;-91
2023/07/14 12:44:56;;;;;;;;;;;24.20;99.90;;;;;;4865541;29;19923;-91
2023/07/14 12:47:21;;;;;;;;;;;24.00;99.90;;;;;;4886175;29;20071;-89
2023/07/14 12:49:48;;;;;;;;;;;23.80;99.90;;;;;;4864269;29;19963;-90
2023/07/14 12:52:22;;;;;;;;;;;23.80;99.90;;;;;;4880205;29;20014;-89
2023/07/14 12:54:56;;;;;;;;;;;23.70;99.90;;;;;;4856894;29;20007;-90
2023/07/14 12:57:22;;;;;;;;;;;23.80;99.90;;;;;;4874545;29;20276;-89
2023/07/14 12:59:48;;;;;;;;;;;23.80;99.90;;;;;;4864712;29;20343;-88
2023/07/14 13:02:14;;;;;;;;;;;23.80;99.90;;;;;;4879377;29;19931;-89
2023/07/14 13:04:40;;;;;;;;;;;23.90;99.90;;;;;;4864363;29;19939;-91
2023/07/14 13:07:21;;;;;;;;;;;23.90;99.90;;;;;;4880357;29;19935;-91
2023/07/14 13:09:59;;;;;;;;;;;23.90;99.90;;;;;;4864619;29;20348;-91
2023/07/14 13:12:27;;;;;;;;;;;24.00;99.90;;;;;;4895059;29;19927;-93
2023/07/14 13:14:53;;;;;;;;;;;24.20;99.90;;;;;;4864847;29;19950;-92
2023/07/14 13:17:24;;;;;;;;;;;24.20;99.90;;;;;;4863925;29;19934;-90
2023/07/14 13:19:54;;;;;;;;;;;24.20;99.90;;;;;;4858067;29;19935;-92
2023/07/14 13:22:22;;;;;;;;;;;24.20;99.90;;;;;;4853360;29;20441;-91
2023/07/14 13:25:06;;;;;;;;;;;24.10;99.90;;;;;;4864587;29;19938;-91
2023/07/14 13:27:37;;;;;;;;;;;23.80;99.90;;;;;;4879622;29;19928;-91
2023/07/14 13:30:22;;;;;;;;;;;24.20;99.90;;;;;;4879306;29;20017;-90
2023/07/14 13:32:56;;;;;;;;;;;24.20;99.90;;;;;;4863645;29;20372;-91
2023/07/14 13:35:24;;;;;;;;;;;24.20;99.90;;;;;;4878874;29;20580;-85
2023/07/14 13:37:55;;;;;;;;;;;24.20;99.90;;;;;;4878809;29;20344;-90
2023/07/14 13:40:27;;;;;;;;;;;24.20;99.90;;;;;;4877030;29;19959;-89
2023/07/14 13:43:01;;;;;;;;;;;24.00;99.90;;;;;;4878150;29;19937;-91
2023/07/14 13:45:42;;;;;;;;;;;24.00;99.90;;;;;;4877340;29;19939;-91
2023/07/14 13:48:31;;;;;;;;;;;23.90;99.90;;;;;;4877263;29;19931;-92
2023/07/14 13:50:58;;;;;;;;;;;23.70;99.90;;;;;;4859039;29;20368;-90
2023/07/14 13:53:24;;;;;;;;;;;23.60;99.90;;;;;;4864162;29;19978;-94
2023/07/14 13:55:49;;;;;;;;;;;23.40;99.90;;;;;;4879749;29;20025;-92
2023/07/14 13:58:15;;;;;;;;;;;23.40;99.90;;;;;;4864907;29;19927;-91
2023/07/14 14:00:42;;;;;;;;;;;23.30;99.90;;;;;;4877698;29;19959;-91
2023/07/14 14:03:08;;;;;;;;;;;23.40;99.90;;;;;;4864728;29;19928;-91
2023/07/14 14:05:36;;;;;;;;;;;23.40;99.90;;;;;;4863186;29;20276;-91
2023/07/14 14:08:09;;;;;;;;;;;23.50;99.90;;;;;;4864248;29;19927;-91
2023/07/14 14:10:35;;;;;;;;;;;23.60;99.90;;;;;;4878568;29;20318;-91
2023/07/14 14:13:01;;;;;;;;;;;23.60;99.90;;;;;;4864820;29;19978;-92
2023/07/14 14:15:37;;;;;;;;;;;23.70;99.90;;;;;;4879183;29;20398;-89
2023/07/14 14:18:22;;;;;;;;;;;23.80;99.90;;;;;;4863232;29;19931;-91
2023/07/14 14:20:49;;;;;;;;;;;23.80;99.90;;;;;;4869672;29;19978;-91
2023/07/14 14:23:21;;;;;;;;;;;24.00;99.90;;;;;;4863561;29;19931;-94
2023/07/14 14:25:47;;;;;;;;;;;24.00;99.90;;;;;;4869027;29;20281;-92